Aérodrome :
LOGIN :

S'inscrire | Disclaimer

   EN    FR    IT 

 










Légende :    VFR   VFR Marginal   IFR   IFR Intensif   IFR Très Intensif
Visi : 
Plafond : 
>= 8 km
>= 3000ft
5 à 8 km
1000 à 3000 ft
1500m à 5 km
500 à 1000 ft
800 à 1500m
200 à 500 ft
< 800m
< 200 ft
Symboles :   Orages  Brouillard  Fortes neiges  Fortes précipitations  Vent > 20 kt
SIGMETs :   Divers  Orages  Givrage  Turbulence  Onde Orograph.  Cendres Volcan.






- Altitude de l'aérodrome : 1234 ft
- Code IATA : LUX


ELLX - Luxembourg Findel

DERNIER METAR :
  • 240050Z AUTO 14004KT 090V190 2400 BR OVC002/// M01/M02 Q1024 NOSIG

METARs EXPIRÉS :
  • 240020Z AUTO 16006KT 3100 BR OVC003/// M01/M02 Q1025 NOSIG
  • 232350Z AUTO 17006KT 150V210 3700 BR OVC003/// M01/M02 Q1025 NOSIG
  • 232320Z 16006KT 130V200 4500 BR BKN004 M01/M02 Q1025 NOSIG
  • 232250Z 14006KT 120V180 4500 BR BKN004 M01/M02 Q1025 NOSIG
  • 232220Z 14004KT 110V180 5000 BR BKN004 M01/M02 Q1025 NOSIG
  • 232150Z 14007KT 5000 BR BKN004 M01/M02 Q1025 NOSIG

TAF TAF ELLX
Valide du 24 à 00h jusqu'au 25 à 06h UTC


232300Z 2400/2506 16005KT 4000 BR BKN004
BECMG 2402/2404 FZFG BKN002
BECMG 2408/2411 9999 SCT008 BKN015
BECMG 2416/2418 VRB02KT
BECMG 2420/2423 2500 BR
PROB40
TEMPO 2500/2506 0500 FZFG BKN002
ATIS : +352 4798 27300
Météo : +352 4798 27010 / 27050



MET'MAP, la Météo Aéronautique d'un coup d'oeil ! - Copyright ORBIFLY Décembre 2007 - Disclaimer

ORBIFLY MET'MAP TEAM :

Programmation & Développement : Alexandra Zaïnal
Sur une idée originale de : Baudouin d'Aumeries
Assistance à la programmation : Marc-Olivier Méhu
Soutien technique & logistique : Manuel Goepfert

Contact : metmap@orbifly.com




SOURCES & CREDITS :

   NOAA